Latest Weather Observations for Cape Otway

IDV60801

Issued at 1:03 pm EDT Tuesday 21 November 2017 (issued every 30 minutes, with the page automatically refreshed every 10 minutes)

About weather observations | Map of weather stations | Latest weather observations for VIC | Other Formats
Station Details ID: 090015 Name: CAPE OTWAY LIGHTHOUSE Lat: -38.86 Lon: 143.51 Height: 82.0 m
Data from the previous 72 hours. | See also: Recent months at Cape Otway
Date/Time
EDT
Temp
°C
App
Temp
°C
Dew
Point
°C
Rel
Hum
%
Delta-T
°C
Wind Press
QNH
hPa
Press
MSL
hPa
Rain since
9am
mm
Dir  Spd
km/h
Gust
km/h
Spd
kts
Gust
kts
21/01:00pm 20.0 18.6 16.6 81 2.1 E 19 30 10 16 1019.4 1019.3 0.0
21/12:30pm 20.1 18.8 16.9 82 1.9 E 19 30 10 16 1019.6 1019.5 0.0
21/12:00pm 20.0 19.0 16.6 81 2.1 E 17 24 9 13 1019.9 1019.8 0.0
21/11:30am 20.2 19.3 16.8 81 2.1 E 17 24 9 13 1020.0 1019.9 0.0
21/11:00am 20.7 20.0 17.3 81 2.1 E 17 26 9 14 1020.2 1020.1 0.0
21/10:30am 20.7 19.3 16.5 77 2.5 E 19 28 10 15 1020.3 1020.2 0.0
21/10:00am 21.1 19.5 16.1 73 3.0 E 19 24 10 13 1020.4 1020.3 0.0
21/09:30am 22.5 21.7 16.1 67 3.9 E 15 24 8 13 1020.4 1020.3 0.0
21/09:00am 20.3 18.4 14.2 68 3.5 E 17 22 9 12 1020.3 1020.2 0.0
21/08:30am 21.4 19.5 14.1 63 4.3 ENE 17 26 9 14 1020.3 1020.2 0.0
21/08:00am 19.4 17.1 13.1 67 3.6 ENE 17 20 9 11 1020.2 1020.1 0.0
21/07:30am 19.0 16.3 11.8 63 4.0 NE 17 24 9 13 1019.9 1019.8 0.0
21/07:00am 18.3 15.4 13.0 71 3.0 ENE 20 26 11 14 1019.8 1019.7 0.0
21/06:30am 19.7 16.4 9.6 52 5.4 NE 17 24 9 13 1019.6 1019.5 0.0
21/06:00am 20.0 16.2 9.9 52 5.4 NE 20 26 11 14 1019.4 1019.3 0.0
21/05:30am 20.5 16.6 9.4 49 5.9 NE 20 24 11 13 1019.0 1018.9 0.0
21/05:00am 21.1 17.2 9.4 47 6.3 NE 20 24 11 13 1019.0 1018.9 0.0
21/04:30am 20.6 16.0 9.8 50 5.8 NE 24 32 13 17 1018.9 1018.8 0.0
21/04:00am 19.6 14.9 10.6 56 4.9 NE 26 30 14 16 1018.9 1018.8 0.0
21/03:30am 19.8 15.1 10.5 55 5.0 NE 26 32 14 17 1019.0 1018.9 0.0
21/03:00am 19.9 14.8 10.6 55 5.0 NE 28 35 15 19 1019.0 1018.9 0.0
21/02:30am 19.9 14.9 11.1 57 4.8 NE 28 37 15 20 1019.2 1019.1 0.0
21/02:00am 20.5 15.1 10.9 54 5.3 NE 30 39 16 21 1019.3 1019.2 0.0
21/01:30am 20.5 15.2 11.4 56 5.0 NE 30 39 16 21 1019.6 1019.5 0.0
21/01:00am 20.4 15.2 11.6 57 4.9 NE 30 39 16 21 1020.0 1019.9 0.0
21/12:30am 20.2 15.6 12.2 60 4.5 NE 28 37 15 20 1020.2 1020.1 0.0
21/12:00am 20.1 15.0 11.8 59 4.6 NE 30 41 16 22 1020.4 1020.3 0.0
 
Date/Time
EDT
Temp
°C
App
Temp
°C
Dew
Point
°C
Rel
Hum
%
Delta-T
°C
Wind Press
QNH
hPa
Press
MSL
hPa
Rain since
9am
mm
Dir  Spd
km/h
Gust
km/h
Spd
kts
Gust
kts
20/11:30pm 19.8 14.8 12.1 61 4.3 NE 30 39 16 21 1020.5 1020.4 0.0
20/11:00pm 19.2 15.0 13.4 69 3.3 NE 28 43 15 23 1020.8 1020.7 0.0
20/10:30pm 18.8 15.3 14.5 76 2.5 ENE 26 35 14 19 1021.0 1021.0 0.0
20/10:00pm 18.8 15.3 14.5 76 2.5 ENE 26 32 14 17 1021.1 1021.1 0.0
20/09:30pm 18.7 15.7 14.8 78 2.3 ENE 24 32 13 17 1021.0 1021.0 0.0
20/09:00pm 18.7 15.6 14.6 77 2.4 ENE 24 32 13 17 1020.7 1020.6 0.0
20/08:30pm 18.3 15.4 15.0 81 1.9 ENE 24 32 13 17 1020.7 1020.6 0.0
20/08:00pm 18.2 16.1 16.2 88 1.2 ENE 22 28 12 15 1020.7 1020.6 0.0
20/07:30pm 18.4 16.4 16.4 88 1.2 ENE 22 30 12 16 1020.6 1020.5 0.0
20/07:00pm 19.0 17.4 16.4 85 1.6 E 20 30 11 16 1020.4 1020.3 0.0
20/06:30pm 19.3 17.6 16.3 83 1.8 E 20 32 11 17 1020.3 1020.2 0.0
20/06:00pm 19.5 17.6 16.7 84 1.7 E 22 32 12 17 1020.2 1020.1 0.0
20/05:30pm 19.5 19.0 16.9 85 1.6 E 15 20 8 11 1020.3 1020.2 0.0
20/05:00pm 20.1 18.7 17.1 83 1.8 E 20 28 11 15 1020.3 1020.2 0.0
20/04:30pm 19.9 17.7 16.9 83 1.8 E 24 28 13 15 1020.5 1020.4 0.0
20/04:00pm 22.6 21.0 16.6 69 3.7 E 20 26 11 14 1020.5 1020.4 0.0
20/03:30pm 20.6 19.1 16.8 79 2.3 E 20 24 11 13 1020.8 1020.7 0.0
20/03:00pm 19.8 18.2 16.6 82 1.9 E 20 24 11 13 1021.1 1021.1 0.0
20/02:30pm 20.5 19.2 17.3 82 2.0 E 20 24 11 13 1021.3 1021.3 0.0
20/02:00pm 19.4 18.6 17.2 87 1.3 E 17 24 9 13 1021.7 1021.7 0.0
20/01:30pm 19.4 19.4 17.2 87 1.3 E 13 17 7 9 1021.9 1021.9 0.0
20/01:00pm 19.3 19.3 17.1 87 1.3 E 13 20 7 11 1022.1 1022.1 0.0
20/12:30pm 19.3 18.9 17.1 87 1.3 E 15 20 8 11 1022.3 1022.3 0.0
20/12:00pm 18.9 18.2 16.5 86 1.4 E 15 19 8 10 1022.5 1022.5 0.0
20/11:30am 18.3 17.5 16.1 87 1.3 E 15 19 8 10 1022.5 1022.5 0.0
20/11:00am 18.3 17.1 16.1 87 1.3 E 17 22 9 12 1022.6 1022.6 0.0
20/10:30am 18.6 17.8 16.0 85 1.5 E 15 22 8 12 1022.7 1022.7 0.0
20/10:00am 19.7 20.1 16.3 81 2.0 E 9 15 5 8 1022.7 1022.7 0.0
20/09:30am 18.5 18.4 15.9 85 1.5 E 11 17 6 9 1022.9 1022.9 0.0
20/09:00am 17.6 16.7 15.8 89 1.1 E 15 20 8 11 1022.9 1022.9 0.0
20/08:30am 17.9 17.5 16.1 89 1.1 E 13 19 7 10 1022.8 1022.8 0.0
20/08:00am 16.6 15.2 15.6 94 0.6 ENE 17 20 9 11 1022.5 1022.5 0.0
20/07:30am 16.3 14.4 15.7 96 0.4 NE 20 28 11 15 1022.2 1022.2 0.0
20/07:00am 15.7 13.6 15.1 96 0.3 ENE 20 28 11 15 1021.9 1021.9 0.0
20/06:30am 15.3 12.9 14.5 95 0.5 ENE 20 26 11 14 1021.5 1021.5 0.0
20/06:00am 15.2 12.8 14.4 95 0.5 ENE 20 26 11 14 1021.3 1021.3 0.0
20/05:30am 15.5 12.8 14.7 95 0.5 NE 22 26 12 14 1021.1 1021.1 0.0
20/05:00am 15.6 12.7 15.0 96 0.3 ENE 24 28 13 15 1020.9 1020.8 0.0
20/04:30am 15.9 13.4 15.1 95 0.5 ENE 22 28 12 15 1021.0 1021.0 0.0
20/04:00am 16.0 13.9 15.2 95 0.5 ENE 20 26 11 14 1021.0 1021.0 0.0
20/03:30am 15.9 13.7 14.9 94 0.6 ENE 20 24 11 13 1020.9 1020.8 0.0
20/03:00am 16.1 14.0 15.1 94 0.6 ENE 20 26 11 14 1020.8 1020.7 0.0
20/02:30am 15.9 13.6 14.6 92 0.7 ENE 20 28 11 15 1020.6 1020.5 0.0
20/02:00am 16.1 13.7 14.3 89 1.0 ENE 20 26 11 14 1020.7 1020.6 0.0
20/01:30am 16.3 13.0 14.0 86 1.3 ENE 24 28 13 15 1020.9 1020.8 0.0
20/01:00am 16.5 13.4 13.4 82 1.7 ENE 22 26 12 14 1020.9 1020.8 0.0
20/12:30am 16.8 13.9 14.1 84 1.5 ENE 22 28 12 15 1020.9 1020.8 0.0
20/12:00am 16.9 14.2 14.7 87 1.3 ENE 22 28 12 15 1021.0 1021.0 0.0
 
Date/Time
EDT
Temp
°C
App
Temp
°C
Dew
Point
°C
Rel
Hum
%
Delta-T
°C
Wind Press
QNH
hPa
Press
MSL
hPa
Rain since
9am
mm
Dir  Spd
km/h
Gust
km/h
Spd
kts
Gust
kts
19/11:30pm 17.2 15.0 14.8 86 1.4 E 20 28 11 15 1021.1 1021.1 0.0
19/11:00pm 17.6 14.4 14.3 81 1.9 ENE 24 32 13 17 1021.0 1021.0 0.0
19/10:30pm 17.8 14.2 14.1 79 2.1 ENE 26 35 14 19 1020.9 1020.8 0.0
19/10:00pm 17.7 14.2 14.4 81 1.9 NE 26 35 14 19 1020.7 1020.6 0.0
19/09:30pm 17.9 14.8 14.4 80 2.0 ENE 24 32 13 17 1020.7 1020.6 0.0
19/09:00pm 18.3 15.1 14.2 77 2.4 NE 24 33 13 18 1020.5 1020.4 0.0
19/08:30pm 18.3 14.5 14.6 79 2.1 ENE 28 35 15 19 1020.2 1020.1 0.0
19/08:00pm 18.8 15.5 14.9 78 2.3 ENE 26 37 14 20 1020.0 1019.9 0.0
19/07:30pm 19.5 15.6 14.5 73 2.9 ENE 28 39 15 21 1019.7 1019.6 0.0
19/07:00pm 20.0 16.6 14.8 72 3.0 ENE 26 39 14 21 1019.7 1019.6 0.0
19/06:30pm 20.4 17.4 14.7 70 3.3 ENE 24 33 13 18 1019.6 1019.5 0.0
19/06:00pm 21.0 17.5 14.4 66 3.9 ENE 26 39 14 21 1019.9 1019.8 0.0
19/05:30pm 20.8 17.5 14.9 69 3.5 E 26 37 14 20 1020.2 1020.1 0.0
19/05:00pm 21.0 18.0 14.9 68 3.6 E 24 39 13 21 1020.5 1020.4 0.0
19/04:30pm 21.2 19.1 15.1 68 3.6 E 20 30 11 16 1020.5 1020.4 0.0
19/04:00pm 20.7 18.9 15.9 74 2.9 E 20 28 11 15 1020.7 1020.6 0.0
19/03:30pm 20.8 19.2 16.0 74 2.9 E 19 30 10 16 1021.0 1021.0 0.0
19/03:00pm 21.8 19.0 14.2 62 4.4 E 22 33 12 18 1021.0 1021.0 0.0
19/02:30pm 21.5 19.8 16.2 72 3.2 E 20 32 11 17 1021.2 1021.2 0.0
19/02:00pm 19.8 18.5 16.8 83 1.8 E 19 24 10 13 1021.3 1021.3 0.0
19/01:30pm 20.0 18.6 16.6 81 2.1 E 19 24 10 13 1021.5 1021.5 0.0
19/01:00pm 19.8 18.2 16.1 79 2.2 E 19 24 10 13 1021.5 1021.5 0.0
19/12:30pm 20.0 20.0 16.2 79 2.3 E 11 17 6 9 1021.6 1021.6 0.0
19/12:00pm 20.5 20.4 16.1 76 2.6 E 11 20 6 11 1021.5 1021.5 0.0
19/11:30am 17.2 16.9 15.4 89 1.1 ENE 11 15 6 8 1021.7 1021.7 0.0
19/11:00am 19.0 19.1 15.5 80 2.1 E 9 11 5 6 1021.6 1021.6 0.0
19/10:30am 20.4 21.2 16.4 78 2.4 E 7 11 4 6 1021.6 1021.6 0.0
19/10:00am 18.1 18.5 16.3 89 1.1 E 9 11 5 6 1021.4 1021.4 0.0
19/09:30am 16.8 17.0 15.7 93 0.6 E 9 13 5 7 1021.5 1021.5 0.0
19/09:00am 16.3 15.9 15.2 93 0.6 E 11 17 6 9 1021.0 1021.0 0.0
19/08:30am 15.9 15.0 14.8 93 0.6 E 13 19 7 10 1020.4 1020.3 0.0
19/08:00am 16.9 16.6 14.5 86 1.4 E 9 13 5 7 1019.9 1019.8 0.0
19/07:30am 17.3 19.0 15.1 87 1.3 CALM 0 6 0 3 1019.6 1019.5 0.0
19/07:00am 17.2 16.5 14.3 83 1.7 N 11 15 6 8 1019.3 1019.2 0.0
19/06:30am 14.2 13.8 13.1 93 0.6 NE 7 9 4 5 1019.2 1019.1 0.0
19/06:00am 13.4 13.0 12.5 94 0.5 NNE 6 7 3 4 1019.0 1018.9 0.0
19/05:30am 13.4 13.1 12.6 95 0.4 NNE 6 11 3 6 1018.7 1018.6 0.0
19/05:00am 13.7 13.0 13.1 96 0.3 NNE 9 11 5 6 1018.5 1018.4 0.0
19/04:30am 14.3 14.3 13.7 96 0.3 E 6 9 3 5 1018.4 1018.3 0.0
19/04:00am 14.9 14.2 14.4 97 0.3 ENE 11 17 6 9 1018.3 1018.2 0.0
19/03:30am 15.1 13.7 14.6 97 0.3 ENE 15 19 8 10 1018.3 1018.2 0.0
19/03:00am 15.4 13.8 14.9 97 0.3 ENE 17 22 9 12 1018.3 1018.2 0.0
19/02:30am 15.4 13.3 14.8 96 0.3 ENE 19 22 10 12 1018.4 1018.3 0.0
19/02:00am 15.4 13.3 14.8 96 0.3 ENE 19 24 10 13 1018.4 1018.3 0.0
19/01:30am 15.7 14.1 15.1 96 0.3 ENE 17 22 9 12 1018.5 1018.4 0.0
19/01:00am 15.9 13.8 15.3 96 0.3 ENE 20 26 11 14 1018.5 1018.4 0.0
19/12:30am 16.0 14.5 15.4 96 0.3 E 17 26 9 14 1018.7 1018.6 0.0
19/12:00am 15.9 15.2 15.3 96 0.3 E 13 22 7 12 1018.7 1018.6 0.0
 
Date/Time
EDT
Temp
°C
App
Temp
°C
Dew
Point
°C
Rel
Hum
%
Delta-T
°C
Wind Press
QNH
hPa
Press
MSL
hPa
Rain since
9am
mm
Dir  Spd
km/h
Gust
km/h
Spd
kts
Gust
kts
18/11:30pm 16.2 15.5 15.4 95 0.5 E 13 19 7 10 1018.8 1018.7 0.0
18/11:00pm 16.3 15.3 15.5 95 0.5 E 15 20 8 11 1018.7 1018.6 0.0
18/10:30pm 16.1 15.4 15.3 95 0.5 E 13 17 7 9 1018.6 1018.5 0.0
18/10:00pm 16.3 15.6 15.3 94 0.6 E 13 19 7 10 1018.6 1018.5 0.0
18/09:30pm 16.4 16.1 15.4 94 0.6 E 11 17 6 9 1018.5 1018.4 0.0
18/09:00pm 16.4 16.0 15.1 92 0.8 E 11 17 6 9 1018.4 1018.3 0.0
18/08:30pm 16.8 16.8 15.2 90 0.9 ESE 9 13 5 7 1018.3 1018.2 0.0
18/08:00pm 17.3 16.9 15.3 88 1.2 E 11 15 6 8 1018.0 1017.9 0.0
18/07:30pm 17.8 17.2 15.6 87 1.3 E 13 19 7 10 1017.9 1017.8 0.0
18/07:00pm 18.0 16.5 15.3 84 1.6 E 17 24 9 13 1017.4 1017.3 0.0
18/06:30pm 18.3 17.5 15.2 82 1.8 E 13 20 7 11 1017.3 1017.2 0.0
18/06:00pm 18.8 18.1 15.5 81 1.9 E 13 22 7 12 1017.1 1017.0 0.0
18/05:30pm 19.6 18.0 15.0 75 2.7 E 17 26 9 14 1016.6 1016.5 0.0
18/05:00pm 19.5 17.8 14.7 74 2.8 E 17 24 9 13 1016.5 1016.4 0.0
18/04:30pm 19.4 18.0 15.5 78 2.3 E 17 22 9 12 1016.4 1016.3 0.0
18/04:00pm 19.5 18.4 16.3 82 1.9 E 17 28 9 15 1016.7 1016.6 0.0
18/03:30pm 19.6 18.4 17.0 85 1.6 E 19 24 10 13 1016.7 1016.6 0.0
18/03:00pm 19.6 18.6 16.6 83 1.8 E 17 24 9 13 1016.8 1016.7 0.0
18/02:30pm 18.9 17.8 16.3 85 1.6 E 17 24 9 13 1017.0 1016.9 0.0
18/02:00pm 18.6 17.4 16.2 86 1.4 E 17 22 9 12 1017.0 1016.9 0.0
18/01:30pm 18.9 18.1 16.0 83 1.7 E 15 22 8 12 1017.1 1017.0 0.0

Other Formats:

Comma delimited format used in spreadsheet applications
http://www.bom.gov.au/fwo/IDV60801/IDV60801.94842.axf

JavaScript Object Notation format (JSON) in row-major order
http://www.bom.gov.au/fwo/IDV60801/IDV60801.94842.json